createdAt,value
2022-10-11T00:00:02.090Z,9.6
2022-10-11T00:05:03.088Z,9.6
2022-10-11T00:10:02.390Z,9.6
2022-10-11T00:15:02.586Z,9.5
2022-10-11T00:20:01.708Z,9.5
2022-10-11T00:25:01.968Z,9.5
2022-10-11T00:30:02.133Z,9.5
2022-10-11T00:35:02.331Z,9.4
2022-10-11T00:40:02.431Z,9.4
2022-10-11T00:45:02.619Z,9.3
2022-10-11T00:50:01.786Z,9.3
2022-10-11T00:55:01.927Z,9.2
2022-10-11T01:00:02.150Z,9.2
2022-10-11T01:05:25.584Z,9.2
2022-10-11T01:10:02.320Z,9.1
2022-10-11T01:15:03.041Z,9.2
2022-10-11T01:20:02.633Z,9
2022-10-11T01:25:01.762Z,9
2022-10-11T01:30:01.864Z,9
2022-10-11T01:35:02.096Z,8.9
2022-10-11T01:40:02.245Z,8.8
2022-10-11T01:45:03.393Z,8.8
2022-10-11T01:50:02.448Z,8.7
2022-10-11T01:55:09.437Z,8.7
2022-10-11T02:00:01.897Z,8.7
2022-10-11T02:05:02.294Z,8.7
2022-10-11T02:10:02.322Z,8.7
2022-10-11T02:15:03.543Z,8.6
2022-10-11T02:20:02.610Z,8.6
2022-10-11T02:25:01.744Z,8.6
2022-10-11T02:30:01.996Z,8.6
2022-10-11T02:35:02.221Z,8.6
2022-10-11T02:40:02.187Z,8.5
2022-10-11T02:45:02.385Z,8.5
2022-10-11T02:50:02.554Z,8.5
2022-10-11T02:55:02.635Z,8.4
2022-10-11T03:00:01.940Z,8.4
2022-10-11T03:05:04.556Z,8.4
2022-10-11T03:10:03.459Z,8.4
2022-10-11T03:15:02.133Z,8.4
2022-10-11T03:20:01.829Z,8.4
2022-10-11T03:25:04.244Z,8.3
2022-10-11T03:30:02.959Z,8.3
2022-10-11T03:35:05.079Z,8.3
2022-10-11T03:40:02.859Z,8.2
2022-10-11T03:45:02.853Z,8.2
2022-10-11T03:50:01.767Z,8.1
2022-10-11T03:55:01.882Z,8.1
2022-10-11T04:00:02.816Z,8.1
2022-10-11T04:05:03.013Z,8.1
2022-10-11T04:10:02.300Z,8.1
2022-10-11T04:15:02.628Z,8.1
2022-10-11T04:20:02.585Z,8.2
2022-10-11T04:25:01.682Z,8.2
2022-10-11T04:30:02.621Z,8.3
2022-10-11T04:35:04.530Z,8.3
2022-10-11T04:40:02.073Z,8.3
2022-10-11T04:45:02.575Z,8.4
2022-10-11T04:50:02.698Z,8.4
2022-10-11T04:55:02.751Z,8.4
2022-10-11T05:00:01.745Z,8.4
2022-10-11T05:05:03.238Z,8.4
2022-10-11T05:10:03.050Z,8.3
2022-10-11T05:15:01.779Z,8.3
2022-10-11T05:20:01.841Z,8.2
2022-10-11T05:25:02.005Z,8.2
2022-10-11T05:30:02.175Z,8.1
2022-10-11T05:35:03.161Z,8
2022-10-11T05:40:03.579Z,8
2022-10-11T05:45:02.675Z,7.9
2022-10-11T05:50:01.756Z,7.9
2022-10-11T05:55:01.947Z,7.9
2022-10-11T06:00:02.101Z,7.9
2022-10-11T06:05:03.373Z,8
2022-10-11T06:10:03.318Z,8
2022-10-11T06:15:02.666Z,8
2022-10-11T06:20:01.780Z,8.1
2022-10-11T06:25:01.998Z,8.2
2022-10-11T06:30:02.179Z,8.3
2022-10-11T06:35:03.179Z,8.4
2022-10-11T06:40:03.444Z,8.6
2022-10-11T06:45:02.762Z,8.7
2022-10-11T06:50:02.128Z,8.8
2022-10-11T06:55:02.355Z,9
2022-10-11T07:00:02.663Z,9.2
2022-10-11T07:05:03.182Z,9.4
2022-10-11T07:10:03.170Z,9.6
2022-10-11T07:15:03.265Z,9.8
2022-10-11T07:20:02.270Z,9.9
2022-10-11T07:25:02.425Z,10.2
2022-10-11T07:30:02.669Z,10.4
2022-10-11T07:35:02.691Z,10.6
2022-10-11T07:40:02.838Z,10.8
2022-10-11T07:45:03.122Z,11
2022-10-11T07:50:02.221Z,11.2
2022-10-11T07:55:01.338Z,11.4
2022-10-11T08:00:02.502Z,11.6
2022-10-11T08:05:03.629Z,11.7
2022-10-11T08:10:02.803Z,12
2022-10-11T08:15:03.112Z,12.2
2022-10-11T08:20:02.193Z,12.4
2022-10-11T08:25:02.250Z,12.5
2022-10-11T08:30:02.416Z,12.8
2022-10-11T08:35:03.553Z,13
2022-10-11T08:40:02.794Z,13.3
2022-10-11T08:45:10.867Z,13.5
2022-10-11T08:50:02.067Z,13.7
2022-10-11T08:55:02.205Z,13.9
2022-10-11T09:00:02.393Z,14.2
2022-10-11T09:05:03.390Z,14.2
2022-10-11T09:10:03.585Z,14.1
2022-10-11T09:15:02.835Z,14.2
2022-10-11T09:20:01.982Z,14.4
2022-10-11T09:25:02.073Z,14.5
2022-10-11T09:30:02.275Z,14.7
2022-10-11T09:35:03.423Z,15
2022-10-11T09:40:03.724Z,15.2
2022-10-11T09:45:02.766Z,15.4
2022-10-11T09:50:01.904Z,15.6
2022-10-11T09:55:02.081Z,15.8
2022-10-11T10:00:02.656Z,15.8
2022-10-11T10:05:02.717Z,16.1
2022-10-11T10:10:02.872Z,16.2
2022-10-11T10:15:03.186Z,16.1
2022-10-11T10:20:02.260Z,16.3
2022-10-11T10:25:02.431Z,16.5
2022-10-11T10:30:02.660Z,16.7
2022-10-11T10:35:02.608Z,16.6
2022-10-11T10:40:02.802Z,16.8
2022-10-11T10:45:03.117Z,16.9
2022-10-11T10:50:02.321Z,17
2022-10-11T10:55:02.464Z,17.1
2022-10-11T11:00:02.359Z,17.3
2022-10-11T11:05:03.364Z,17.1
2022-10-11T11:10:03.458Z,17.2
2022-10-11T11:15:02.874Z,17.7
2022-10-11T11:20:01.898Z,17.7
2022-10-11T11:25:02.019Z,17.5
2022-10-11T11:30:02.203Z,17.5
2022-10-11T11:35:03.343Z,17.4
2022-10-11T11:40:03.317Z,17.2
2022-10-11T11:45:03.819Z,17.4
2022-10-11T11:50:01.766Z,17.4
2022-10-11T11:55:04.078Z,17.6
2022-10-11T12:00:02.122Z,17.8
2022-10-11T12:05:03.138Z,17.5
2022-10-11T12:10:03.416Z,18
2022-10-11T12:15:03.600Z,17.7
2022-10-11T12:20:01.735Z,17.1
2022-10-11T12:25:01.922Z,16.8
2022-10-11T12:30:02.142Z,16.4
2022-10-11T12:35:03.096Z,16
2022-10-11T12:40:03.329Z,15.3
2022-10-11T12:45:04.000Z,14.8
2022-10-11T12:50:02.646Z,14.6
2022-10-11T12:55:01.820Z,14.5
2022-10-11T13:00:01.959Z,14.5
2022-10-11T13:05:03.005Z,14.5
2022-10-11T13:10:03.121Z,14.7
2022-10-11T13:15:03.569Z,14.6
2022-10-11T13:20:02.597Z,14.5
2022-10-11T13:25:01.793Z,14.5
2022-10-11T13:30:02.015Z,14.5
2022-10-11T13:35:03.087Z,14.5
2022-10-11T13:40:03.087Z,14.4
2022-10-11T13:45:03.496Z,14.7
2022-10-11T13:50:02.537Z,14.9
2022-10-11T13:55:02.740Z,15.5
2022-10-11T14:00:01.847Z,16.2
2022-10-11T14:05:02.932Z,16.4
2022-10-11T14:10:03.124Z,16.1
2022-10-11T14:15:03.480Z,16.2
2022-10-11T14:20:06.140Z,16.5
2022-10-11T14:25:02.666Z,16.1
2022-10-11T14:35:02.683Z,16.2
2022-10-11T14:40:03.083Z,16.4
2022-10-11T14:45:03.207Z,16.2
2022-10-11T14:50:02.387Z,15.7
2022-10-11T14:55:02.440Z,15.5
2022-10-11T15:00:02.599Z,15.3
2022-10-11T15:05:02.657Z,15.2
2022-10-11T15:10:02.873Z,14.9
2022-10-11T15:15:03.061Z,14.7
2022-10-11T15:20:02.280Z,14.6
2022-10-11T15:25:02.322Z,14.4
2022-10-11T15:30:02.548Z,14.2
2022-10-11T15:35:03.547Z,14.2
2022-10-11T15:40:02.728Z,14.1
2022-10-11T15:45:03.002Z,14
2022-10-11T15:50:02.030Z,14
2022-10-11T15:55:02.427Z,13.8
2022-10-11T16:00:03.349Z,13.7
2022-10-11T16:05:03.412Z,13.7
2022-10-11T16:10:02.587Z,13.6
2022-10-11T16:15:02.935Z,13.5
2022-10-11T16:20:02.060Z,13.4
2022-10-11T16:25:02.190Z,13.3
2022-10-11T16:30:02.393Z,13.3
2022-10-11T16:35:03.384Z,13.2
2022-10-11T16:40:03.579Z,13.1
2022-10-11T16:45:02.859Z,13
2022-10-11T16:50:01.898Z,12.9
2022-10-11T16:55:02.083Z,12.9
2022-10-11T17:00:02.695Z,12.9
2022-10-11T17:05:03.076Z,12.8
2022-10-11T17:10:03.346Z,12.8
2022-10-11T17:15:03.545Z,12.8
2022-10-11T17:20:01.696Z,12.8
2022-10-11T17:25:01.939Z,12.8
2022-10-11T17:30:02.465Z,12.8
2022-10-11T17:35:03.027Z,12.9
2022-10-11T17:40:03.218Z,13
2022-10-11T17:45:03.667Z,13
2022-10-11T17:50:03.587Z,13
2022-10-11T17:55:02.021Z,13
2022-10-11T18:00:02.440Z,13
2022-10-11T18:05:03.210Z,13
2022-10-11T18:10:03.125Z,13
2022-10-11T18:15:03.475Z,13
2022-10-11T18:20:02.530Z,13
2022-10-11T18:25:02.707Z,12.9
2022-10-11T18:30:01.828Z,12.9
2022-10-11T18:35:02.962Z,12.8
2022-10-11T18:40:03.285Z,12.7
2022-10-11T18:45:03.541Z,12.7
2022-10-11T18:50:02.571Z,12.6
2022-10-11T18:55:02.681Z,12.5
2022-10-11T19:00:11.632Z,12.4
2022-10-11T19:05:02.862Z,12.3
2022-10-11T19:10:03.094Z,12.1
2022-10-11T19:15:03.340Z,12
2022-10-11T19:20:02.486Z,11.9
2022-10-11T19:25:02.636Z,11.9
2022-10-11T19:30:02.793Z,11.8
2022-10-11T19:35:02.775Z,11.9
2022-10-11T19:40:03.007Z,11.9
2022-10-11T19:45:03.640Z,12
2022-10-11T19:50:01.911Z,12
2022-10-11T19:55:02.314Z,12
2022-10-11T20:00:02.249Z,12
2022-10-11T20:05:03.272Z,12
2022-10-11T20:10:03.444Z,11.9
2022-10-11T20:15:02.718Z,11.8
2022-10-11T20:20:01.863Z,11.8
2022-10-11T20:25:02.020Z,11.8
2022-10-11T20:30:02.264Z,11.8
2022-10-11T20:35:03.173Z,11.8
2022-10-11T20:40:03.393Z,11.8
2022-10-11T20:45:03.654Z,11.9
2022-10-11T20:50:01.757Z,11.8
2022-10-11T20:55:01.945Z,11.8
2022-10-11T21:00:03.179Z,11.8
2022-10-11T21:05:03.197Z,11.8
2022-10-11T21:10:03.325Z,11.9
2022-10-11T21:15:03.692Z,12
2022-10-11T21:20:01.709Z,12
2022-10-11T21:25:01.910Z,12
2022-10-11T21:30:03.075Z,12
2022-10-11T21:35:03.173Z,12
2022-10-11T21:40:03.548Z,12
2022-10-11T21:45:03.535Z,12
2022-10-11T21:50:02.423Z,12
2022-10-11T21:55:02.607Z,12.1
2022-10-11T22:00:03.319Z,12
2022-10-11T22:05:01.923Z,12.1
2022-10-11T22:10:02.165Z,12.1
2022-10-11T22:15:02.388Z,12.1
2022-10-11T22:20:02.318Z,12
2022-10-11T22:25:02.735Z,12
2022-10-11T22:30:02.136Z,12
2022-10-11T22:35:01.852Z,12
2022-10-11T22:40:02.107Z,12
2022-10-11T22:45:02.296Z,12.1
2022-10-11T22:50:02.361Z,12
2022-10-11T22:55:02.812Z,12
2022-10-11T23:00:04.361Z,11.9
2022-10-11T23:05:02.403Z,11.7
2022-10-11T23:10:02.763Z,11.5
2022-10-11T23:15:03.285Z,11.4
2022-10-11T23:20:02.257Z,11.3
2022-10-11T23:25:02.396Z,11.2
2022-10-11T23:30:03.544Z,11.1
2022-10-11T23:35:01.622Z,11
2022-10-11T23:40:01.863Z,11
2022-10-11T23:45:02.925Z,10.8
2022-10-11T23:50:02.096Z,10.7
2022-10-11T23:55:02.239Z,10.6
